Airfield :
LOGIN :

Register | Disclaimer

   EN    FR    IT 

 










Legend :    VFR   Marginal VFR   IFR   Intensive IFR   Very Intensive IFR
Visi :
Ceiling :
>= 8 km
>= 3000ft
5 to 8 km
1000 to 3000 ft
1500m to 5 km
500 to 1000 ft
800 to 1500m
200 to 500 ft
< 800m
< 200 ft
Symbols :   Thunderstorms  Fog  Heavy snow  Heavy precipitations  Wind > 20 kt
SIGMETs :     Misc.  Thunderstorms  Icing  Turbulence  Mountain Waves  Volcanic Ashes






- Airport Elevation : 375 ft
- IATA code : MST


EHBK - Maastricht Aachen

CURRENT METAR :
  • 210925Z AUTO 19014KT 150V230 9999 NSC 15/10 Q1002 NOSIG

EXPIRED METARs :
  • 210855Z AUTO 18014KT 9999 NSC 14/10 Q1003 NOSIG
  • 210825Z AUTO 19015KT 9999 -DZ NSC 14/10 Q1003 REDZ NOSIG
  • 210755Z AUTO 19014KT 160V220 9999 -DZRA NSC 13/10 Q1003 BECMG -RADZ
  • 210725Z AUTO 18013KT 150V210 9999 +DZ NSC 13/10 Q1003 BECMG -RADZ
  • 210655Z AUTO 18010KT 150V210 9999 -RA BKN040 BKN045 13/11 Q1003 NOSIG

TAF TAF EHBK
Valid from the 21 at 06:00 until the 22 at 12:00 UTC


210515Z 2106/2212 18010KT 9999 -RA NSC
BECMG 2108/2111 21020G32KT
BECMG 2116/2119 21013KT



MET'MAP, your aeronautical weather chart ! - Copyright ORBIFLY December 2007 - Disclaimer

ORBIFLY MET'MAP TEAM :

Programming & Development : Alexandra Zaïnal
Concept & original design : Baudouin d'Aumeries
Assistance for programming : Marc-Olivier Méhu
Technical & hardware support : Manuel Goepfert

Contact : metmap@orbifly.com




SOURCES & CREDITS :

   NOAA